sensor_id;sensor_type;location;lat;lon;timestamp;pressure;altitude;pressure_sealevel;temperature
79228;BMP280;75303;53.496;10.214;2024-03-02T00:00:10;99713.63;;;8.55
79228;BMP280;75303;53.496;10.214;2024-03-02T00:02:45;99724.44;;;8.53
79228;BMP280;75303;53.496;10.214;2024-03-02T00:05:12;99718.88;;;8.55
79228;BMP280;75303;53.496;10.214;2024-03-02T00:07:39;99719.97;;;8.54
79228;BMP280;75303;53.496;10.214;2024-03-02T00:10:08;99715.03;;;8.52
79228;BMP280;75303;53.496;10.214;2024-03-02T00:12:38;99718.72;;;8.51
79228;BMP280;75303;53.496;10.214;2024-03-02T00:15:06;99721.03;;;8.53
79228;BMP280;75303;53.496;10.214;2024-03-02T00:17:44;99715.59;;;8.49
79228;BMP280;75303;53.496;10.214;2024-03-02T00:20:11;99708.81;;;8.48
79228;BMP280;75303;53.496;10.214;2024-03-02T00:22:41;99710.94;;;8.46
79228;BMP280;75303;53.496;10.214;2024-03-02T00:25:06;99703.38;;;8.45
79228;BMP280;75303;53.496;10.214;2024-03-02T00:27:33;99692.56;;;8.46
79228;BMP280;75303;53.496;10.214;2024-03-02T00:30:00;99703.19;;;8.42
79228;BMP280;75303;53.496;10.214;2024-03-02T00:32:26;99703.78;;;8.39
79228;BMP280;75303;53.496;10.214;2024-03-02T00:34:53;99700.09;;;8.40
79228;BMP280;75303;53.496;10.214;2024-03-02T00:37:18;99694.84;;;8.40
79228;BMP280;75303;53.496;10.214;2024-03-02T00:39:49;99693.13;;;8.35
79228;BMP280;75303;53.496;10.214;2024-03-02T00:42:14;99690.03;;;8.33
79228;BMP280;75303;53.496;10.214;2024-03-02T00:44:39;99689.41;;;8.36
79228;BMP280;75303;53.496;10.214;2024-03-02T00:47:05;99694.50;;;8.33
79228;BMP280;75303;53.496;10.214;2024-03-02T00:49:30;99689.88;;;8.30
79228;BMP280;75303;53.496;10.214;2024-03-02T00:51:55;99690.63;;;8.30
79228;BMP280;75303;53.496;10.214;2024-03-02T00:54:22;99692.78;;;8.28
79228;BMP280;75303;53.496;10.214;2024-03-02T00:56:49;99685.50;;;8.25
79228;BMP280;75303;53.496;10.214;2024-03-02T00:59:14;99682.09;;;8.25
79228;BMP280;75303;53.496;10.214;2024-03-02T01:01:40;99681.31;;;8.24
79228;BMP280;75303;53.496;10.214;2024-03-02T01:04:05;99683.47;;;8.22
79228;BMP280;75303;53.496;10.214;2024-03-02T01:06:30;99692.25;;;8.18
79228;BMP280;75303;53.496;10.214;2024-03-02T01:08:55;99694.56;;;8.19
79228;BMP280;75303;53.496;10.214;2024-03-02T01:11:21;99701.09;;;8.22
79228;BMP280;75303;53.496;10.214;2024-03-02T01:13:49;99697.09;;;8.24
79228;BMP280;75303;53.496;10.214;2024-03-02T01:16:14;99697.09;;;8.24
79228;BMP280;75303;53.496;10.214;2024-03-02T01:18:40;99693.66;;;8.24
79228;BMP280;75303;53.496;10.214;2024-03-02T01:21:06;99685.03;;;8.23
79228;BMP280;75303;53.496;10.214;2024-03-02T01:23:31;99688.25;;;8.20
79228;BMP280;75303;53.496;10.214;2024-03-02T01:25:56;99678.81;;;8.19
79228;BMP280;75303;53.496;10.214;2024-03-02T01:28:21;99685.44;;;8.17
79228;BMP280;75303;53.496;10.214;2024-03-02T01:30:47;99685.63;;;8.20
79228;BMP280;75303;53.496;10.214;2024-03-02T01:33:13;99688.38;;;8.15
79228;BMP280;75303;53.496;10.214;2024-03-02T01:35:38;99677.28;;;8.18
79228;BMP280;75303;53.496;10.214;2024-03-02T01:38:04;99680.66;;;8.19
79228;BMP280;75303;53.496;10.214;2024-03-02T01:40:31;99677.47;;;8.22
79228;BMP280;75303;53.496;10.214;2024-03-02T01:42:56;99675.09;;;8.20
79228;BMP280;75303;53.496;10.214;2024-03-02T01:45:24;99675.09;;;8.20
79228;BMP280;75303;53.496;10.214;2024-03-02T01:47:50;99674.03;;;8.21
79228;BMP280;75303;53.496;10.214;2024-03-02T01:50:15;99674.34;;;8.20
79228;BMP280;75303;53.496;10.214;2024-03-02T01:52:41;99675.09;;;8.20
79228;BMP280;75303;53.496;10.214;2024-03-02T01:55:06;99675.09;;;8.20
79228;BMP280;75303;53.496;10.214;2024-03-02T01:57:33;99678.53;;;8.21
79228;BMP280;75303;53.496;10.214;2024-03-02T01:59:58;99678.22;;;8.22
79228;BMP280;75303;53.496;10.214;2024-03-02T02:02:23;99678.22;;;8.22
79228;BMP280;75303;53.496;10.214;2024-03-02T02:04:49;99676.38;;;8.23
79228;BMP280;75303;53.496;10.214;2024-03-02T02:07:14;99681.16;;;8.21
79228;BMP280;75303;53.496;10.214;2024-03-02T02:09:42;99677.28;;;8.18
79228;BMP280;75303;53.496;10.214;2024-03-02T02:12:09;99685.63;;;8.20
79228;BMP280;75303;53.496;10.214;2024-03-02T02:14:34;99679.72;;;8.15
79228;BMP280;75303;53.496;10.214;2024-03-02T02:16:59;99680.97;;;8.17
79228;BMP280;75303;53.496;10.214;2024-03-02T02:19:25;99680.50;;;8.15
79228;BMP280;75303;53.496;10.214;2024-03-02T02:21:50;99677.66;;;8.12
79228;BMP280;75303;53.496;10.214;2024-03-02T02:24:15;99672.25;;;8.08
79228;BMP280;75303;53.496;10.214;2024-03-02T02:26:40;99668.38;;;8.06
79228;BMP280;75303;53.496;10.214;2024-03-02T02:29:05;99669.13;;;8.06
79228;BMP280;75303;53.496;10.214;2024-03-02T02:31:41;99665.44;;;8.07
79228;BMP280;75303;53.496;10.214;2024-03-02T02:34:06;99668.19;;;8.02
79228;BMP280;75303;53.496;10.214;2024-03-02T02:36:32;99663.41;;;8.04
79228;BMP280;75303;53.496;10.214;2024-03-02T02:39:01;99661.97;;;7.98
79228;BMP280;75303;53.496;10.214;2024-03-02T02:41:28;99658.09;;;7.96
79228;BMP280;75303;53.496;10.214;2024-03-02T02:43:54;99657.34;;;7.95
79228;BMP280;75303;53.496;10.214;2024-03-02T02:46:19;99658.41;;;7.94
79228;BMP280;75303;53.496;10.214;2024-03-02T02:48:44;99652.53;;;7.97
79228;BMP280;75303;53.496;10.214;2024-03-02T02:51:09;99651.91;;;7.92
79228;BMP280;75303;53.496;10.214;2024-03-02T02:53:35;99651.59;;;7.93
79228;BMP280;75303;53.496;10.214;2024-03-02T02:56:00;99654.81;;;7.90
79228;BMP280;75303;53.496;10.214;2024-03-02T02:58:25;99656.38;;;7.91
79228;BMP280;75303;53.496;10.214;2024-03-02T03:00:51;99648.81;;;7.90
79228;BMP280;75303;53.496;10.214;2024-03-02T03:03:16;99644.03;;;7.92
79228;BMP280;75303;53.496;10.214;2024-03-02T03:05:41;99651.75;;;7.88
79228;BMP280;75303;53.496;10.214;2024-03-02T03:08:06;99648.63;;;7.86
79228;BMP280;75303;53.496;10.214;2024-03-02T03:10:32;99651.13;;;7.91
79228;BMP280;75303;53.496;10.214;2024-03-02T03:12:58;99640.44;;;7.88
79228;BMP280;75303;53.496;10.214;2024-03-02T03:15:23;99647.25;;;7.89
79228;BMP280;75303;53.496;10.214;2024-03-02T03:17:48;99649.13;;;7.88
79228;BMP280;75303;53.496;10.214;2024-03-02T03:20:14;99641.69;;;7.90
79228;BMP280;75303;53.496;10.214;2024-03-02T03:22:40;99646.34;;;7.93
79228;BMP280;75303;53.496;10.214;2024-03-02T03:25:06;99644.81;;;7.92
79228;BMP280;75303;53.496;10.214;2024-03-02T03:27:33;99648.00;;;7.89
79228;BMP280;75303;53.496;10.214;2024-03-02T03:29:58;99648.22;;;7.93
79228;BMP280;75303;53.496;10.214;2024-03-02T03:32:23;99649.91;;;7.97
79228;BMP280;75303;53.496;10.214;2024-03-02T03:34:48;99640.34;;;7.93
79228;BMP280;75303;53.496;10.214;2024-03-02T03:37:14;99652.38;;;7.94
79228;BMP280;75303;53.496;10.214;2024-03-02T03:39:40;99647.91;;;7.94
79228;BMP280;75303;53.496;10.214;2024-03-02T03:42:05;99645.88;;;7.91
79228;BMP280;75303;53.496;10.214;2024-03-02T03:44:31;99645.38;;;7.89
79228;BMP280;75303;53.496;10.214;2024-03-02T03:46:56;99646.50;;;7.88
79228;BMP280;75303;53.496;10.214;2024-03-02T03:49:22;99647.44;;;7.92
79228;BMP280;75303;53.496;10.214;2024-03-02T03:51:47;99655.78;;;7.94
79228;BMP280;75303;53.496;10.214;2024-03-02T03:54:12;99645.88;;;7.91
79228;BMP280;75303;53.496;10.214;2024-03-02T03:56:37;99651.75;;;7.88
79228;BMP280;75303;53.496;10.214;2024-03-02T03:59:03;99644.94;;;7.87
79228;BMP280;75303;53.496;10.214;2024-03-02T04:01:29;99644.94;;;7.87
79228;BMP280;75303;53.496;10.214;2024-03-02T04:03:55;99644.94;;;7.87
79228;BMP280;75303;53.496;10.214;2024-03-02T04:06:20;99642.31;;;7.87
79228;BMP280;75303;53.496;10.214;2024-03-02T04:08:45;99641.25;;;7.88
79228;BMP280;75303;53.496;10.214;2024-03-02T04:11:10;99643.69;;;7.85
79228;BMP280;75303;53.496;10.214;2024-03-02T04:13:36;99634.44;;;7.87
79228;BMP280;75303;53.496;10.214;2024-03-02T04:16:01;99629.34;;;7.91
79228;BMP280;75303;53.496;10.214;2024-03-02T04:18:26;99625.66;;;7.92
79228;BMP280;75303;53.496;10.214;2024-03-02T04:20:51;99622.72;;;7.93
79228;BMP280;75303;53.496;10.214;2024-03-02T04:23:16;99622.72;;;7.93
79228;BMP280;75303;53.496;10.214;2024-03-02T04:25:42;99624.09;;;7.91
79228;BMP280;75303;53.496;10.214;2024-03-02T04:28:07;99618.72;;;7.96
79228;BMP280;75303;53.496;10.214;2024-03-02T04:30:32;99624.28;;;7.94
79228;BMP280;75303;53.496;10.214;2024-03-02T04:32:58;99625.03;;;7.95
79228;BMP280;75303;53.496;10.214;2024-03-02T04:35:23;99627.97;;;7.93
79228;BMP280;75303;53.496;10.214;2024-03-02T04:37:48;99625.84;;;7.95
79228;BMP280;75303;53.496;10.214;2024-03-02T04:40:14;99635.72;;;7.98
79228;BMP280;75303;53.496;10.214;2024-03-02T04:42:39;99627.38;;;7.96
79228;BMP280;75303;53.496;10.214;2024-03-02T04:45:05;99634.78;;;7.94
79228;BMP280;75303;53.496;10.214;2024-03-02T04:47:30;99635.09;;;7.93
79228;BMP280;75303;53.496;10.214;2024-03-02T04:49:55;99640.03;;;7.94
79228;BMP280;75303;53.496;10.214;2024-03-02T04:52:21;99639.25;;;7.94
79228;BMP280;75303;53.496;10.214;2024-03-02T04:54:46;99630.25;;;7.86
79228;BMP280;75303;53.496;10.214;2024-03-02T04:57:30;99638.72;;;7.83
79228;BMP280;75303;53.496;10.214;2024-03-02T04:59:55;99644.59;;;7.80
79228;BMP280;75303;53.496;10.214;2024-03-02T05:02:20;99649.66;;;7.77
79228;BMP280;75303;53.496;10.214;2024-03-02T05:04:45;99652.28;;;7.77
79228;BMP280;75303;53.496;10.214;2024-03-02T05:07:11;99646.41;;;7.80
79228;BMP280;75303;53.496;10.214;2024-03-02T05:09:36;99655.19;;;7.75
79228;BMP280;75303;53.496;10.214;2024-03-02T05:12:01;99654.13;;;7.76
79228;BMP280;75303;53.496;10.214;2024-03-02T05:14:45;99658.59;;;7.76
79228;BMP280;75303;53.496;10.214;2024-03-02T05:17:11;99657.94;;;7.70
79228;BMP280;75303;53.496;10.214;2024-03-02T05:19:36;99655.31;;;7.70
79228;BMP280;75303;53.496;10.214;2024-03-02T05:22:01;99648.50;;;7.69
79228;BMP280;75303;53.496;10.214;2024-03-02T05:24:27;99655.91;;;7.67
79228;BMP280;75303;53.496;10.214;2024-03-02T05:26:53;99643.56;;;7.68
79228;BMP280;75303;53.496;10.214;2024-03-02T05:29:18;99650.19;;;7.66
79228;BMP280;75303;53.496;10.214;2024-03-02T05:31:43;99647.84;;;7.64
79228;BMP280;75303;53.496;10.214;2024-03-02T05:34:09;99645.41;;;7.67
79228;BMP280;75303;53.496;10.214;2024-03-02T05:36:34;99639.38;;;7.67
79228;BMP280;75303;53.496;10.214;2024-03-02T05:38:59;99649.31;;;7.70
79228;BMP280;75303;53.496;10.214;2024-03-02T05:41:24;99652.69;;;7.70
79228;BMP280;75303;53.496;10.214;2024-03-02T05:43:50;99643.25;;;7.69
79228;BMP280;75303;53.496;10.214;2024-03-02T05:46:15;99648.03;;;7.67
79228;BMP280;75303;53.496;10.214;2024-03-02T05:48:40;99653.75;;;7.69
79228;BMP280;75303;53.496;10.214;2024-03-02T05:51:05;99646.69;;;7.70
79228;BMP280;75303;53.496;10.214;2024-03-02T05:53:30;99649.13;;;7.67
79228;BMP280;75303;53.496;10.214;2024-03-02T05:55:56;99647.75;;;7.69
79228;BMP280;75303;53.496;10.214;2024-03-02T05:58:22;99647.56;;;7.66
79228;BMP280;75303;53.496;10.214;2024-03-02T06:01:14;99654.25;;;7.71
79228;BMP280;75303;53.496;10.214;2024-03-02T06:03:39;99652.69;;;7.70
79228;BMP280;75303;53.496;10.214;2024-03-02T06:06:05;99645.13;;;7.69
79228;BMP280;75303;53.496;10.214;2024-03-02T06:08:30;99647.44;;;7.70
79228;BMP280;75303;53.496;10.214;2024-03-02T06:10:55;99645.88;;;7.69
79228;BMP280;75303;53.496;10.214;2024-03-02T06:13:21;99641.25;;;7.67
79228;BMP280;75303;53.496;10.214;2024-03-02T06:15:46;99645.41;;;7.67
79228;BMP280;75303;53.496;10.214;2024-03-02T06:18:12;99654.38;;;7.67
79228;BMP280;75303;53.496;10.214;2024-03-02T06:20:37;99659.13;;;7.65
79228;BMP280;75303;53.496;10.214;2024-03-02T06:23:03;99657.00;;;7.67
79228;BMP280;75303;53.496;10.214;2024-03-02T06:25:28;99660.69;;;7.66
79228;BMP280;75303;53.496;10.214;2024-03-02T06:27:54;99656.50;;;7.65
79228;BMP280;75303;53.496;10.214;2024-03-02T06:30:19;99662.53;;;7.65
79228;BMP280;75303;53.496;10.214;2024-03-02T06:32:44;99662.25;;;7.67
79228;BMP280;75303;53.496;10.214;2024-03-02T06:35:09;99668.56;;;7.66
79228;BMP280;75303;53.496;10.214;2024-03-02T06:37:36;99664.88;;;7.67
79228;BMP280;75303;53.496;10.214;2024-03-02T06:40:01;99664.69;;;7.63
79228;BMP280;75303;53.496;10.214;2024-03-02T06:42:27;99671.00;;;7.62
79228;BMP280;75303;53.496;10.214;2024-03-02T06:44:52;99663.31;;;7.66
79228;BMP280;75303;53.496;10.214;2024-03-02T06:47:18;99673.81;;;7.66
79228;BMP280;75303;53.496;10.214;2024-03-02T06:49:45;99668.75;;;7.69
79228;BMP280;75303;53.496;10.214;2024-03-02T06:52:10;99661.16;;;7.67
79228;BMP280;75303;53.496;10.214;2024-03-02T06:54:36;99669.50;;;7.69
79228;BMP280;75303;53.496;10.214;2024-03-02T06:57:01;99659.97;;;7.73
79228;BMP280;75303;53.496;10.214;2024-03-02T06:59:27;99664.63;;;7.76
79228;BMP280;75303;53.496;10.214;2024-03-02T07:01:52;99668.50;;;7.79
79228;BMP280;75303;53.496;10.214;2024-03-02T07:04:17;99672.38;;;7.81
79228;BMP280;75303;53.496;10.214;2024-03-02T07:06:42;99668.22;;;7.80
79228;BMP280;75303;53.496;10.214;2024-03-02T07:09:07;99672.84;;;7.83
79228;BMP280;75303;53.496;10.214;2024-03-02T07:11:36;99672.25;;;7.86
79228;BMP280;75303;53.496;10.214;2024-03-02T07:14:01;99678.75;;;7.89
79228;BMP280;75303;53.496;10.214;2024-03-02T07:16:26;99667.84;;;7.95
79228;BMP280;75303;53.496;10.214;2024-03-02T07:18:58;99669.56;;;8.00
79228;BMP280;75303;53.496;10.214;2024-03-02T07:21:24;99669.13;;;8.06
79228;BMP280;75303;53.496;10.214;2024-03-02T07:23:49;99662.22;;;8.10
79228;BMP280;75303;53.496;10.214;2024-03-02T07:26:15;99679.53;;;8.11
79228;BMP280;75303;53.496;10.214;2024-03-02T07:28:41;99690.50;;;8.13
79228;BMP280;75303;53.496;10.214;2024-03-02T07:31:07;99689.78;;;8.21
79228;BMP280;75303;53.496;10.214;2024-03-02T07:33:32;99683.31;;;8.19
79228;BMP280;75303;53.496;10.214;2024-03-02T07:35:58;99692.91;;;8.23
79228;BMP280;75303;53.496;10.214;2024-03-02T07:38:27;99694.94;;;8.26
79228;BMP280;75303;53.496;10.214;2024-03-02T07:40:53;99699.75;;;8.33
79228;BMP280;75303;53.496;10.214;2024-03-02T07:43:19;99708.47;;;8.42
79228;BMP280;75303;53.496;10.214;2024-03-02T07:45:45;99716.66;;;8.40
79228;BMP280;75303;53.496;10.214;2024-03-02T07:48:11;99719.13;;;8.45
79228;BMP280;75303;53.496;10.214;2024-03-02T07:50:36;99712.03;;;8.45
79228;BMP280;75303;53.496;10.214;2024-03-02T07:53:02;99715.44;;;8.46
79228;BMP280;75303;53.496;10.214;2024-03-02T07:55:27;99706.97;;;8.49
79228;BMP280;75303;53.496;10.214;2024-03-02T07:57:53;99714.56;;;8.59
79228;BMP280;75303;53.496;10.214;2024-03-02T08:00:18;99717.09;;;8.64
79228;BMP280;75303;53.496;10.214;2024-03-02T08:02:43;99718.00;;;8.68
79228;BMP280;75303;53.496;10.214;2024-03-02T08:05:09;99718.94;;;8.72
79228;BMP280;75303;53.496;10.214;2024-03-02T08:07:34;99717.28;;;8.76
79228;BMP280;75303;53.496;10.214;2024-03-02T08:10:00;99719.09;;;8.75
79228;BMP280;75303;53.496;10.214;2024-03-02T08:12:25;99722.88;;;8.91
79228;BMP280;75303;53.496;10.214;2024-03-02T08:14:50;99720.09;;;8.88
79228;BMP280;75303;53.496;10.214;2024-03-02T08:17:16;99733.06;;;8.84
79228;BMP280;75303;53.496;10.214;2024-03-02T08:19:41;99733.72;;;8.90
79228;BMP280;75303;53.496;10.214;2024-03-02T08:22:06;99732.66;;;8.99
79228;BMP280;75303;53.496;10.214;2024-03-02T08:24:32;99740.56;;;8.99
79228;BMP280;75303;53.496;10.214;2024-03-02T08:27:01;99741.94;;;8.97
79228;BMP280;75303;53.496;10.214;2024-03-02T08:29:27;99737.13;;;8.90
79228;BMP280;75303;53.496;10.214;2024-03-02T08:31:53;99740.19;;;8.84
79228;BMP280;75303;53.496;10.214;2024-03-02T08:34:18;99728.16;;;8.91
79228;BMP280;75303;53.496;10.214;2024-03-02T08:36:43;99738.81;;;8.95
79228;BMP280;75303;53.496;10.214;2024-03-02T08:39:09;99748.16;;;9.01
79228;BMP280;75303;53.496;10.214;2024-03-02T08:41:45;99738.56;;;9.13
79228;BMP280;75303;53.496;10.214;2024-03-02T08:44:10;99739.53;;;9.17
79228;BMP280;75303;53.496;10.214;2024-03-02T08:46:35;99747.75;;;9.16
79228;BMP280;75303;53.496;10.214;2024-03-02T08:49:01;99748.06;;;9.23
79228;BMP280;75303;53.496;10.214;2024-03-02T08:51:26;99746.84;;;9.28
79228;BMP280;75303;53.496;10.214;2024-03-02T08:53:52;99745.28;;;9.19
79228;BMP280;75303;53.496;10.214;2024-03-02T08:56:17;99744.53;;;9.35
79228;BMP280;75303;53.496;10.214;2024-03-02T08:58:43;99746.84;;;9.37
79228;BMP280;75303;53.496;10.214;2024-03-02T09:01:08;99751.47;;;9.31
79228;BMP280;75303;53.496;10.214;2024-03-02T09:03:34;99743.13;;;9.29
79228;BMP280;75303;53.496;10.214;2024-03-02T09:06:00;99745.94;;;9.41
79228;BMP280;75303;53.496;10.214;2024-03-02T09:08:25;99743.44;;;9.45
79228;BMP280;75303;53.496;10.214;2024-03-02T09:10:50;99739.13;;;9.57
79228;BMP280;75303;53.496;10.214;2024-03-02T09:13:16;99746.59;;;9.64
79228;BMP280;75303;53.496;10.214;2024-03-02T09:15:41;99747.81;;;9.66
79228;BMP280;75303;53.496;10.214;2024-03-02T09:18:07;99747.50;;;9.68
79228;BMP280;75303;53.496;10.214;2024-03-02T09:20:32;99748.47;;;9.72
79228;BMP280;75303;53.496;10.214;2024-03-02T09:22:57;99748.91;;;9.74
79228;BMP280;75303;53.496;10.214;2024-03-02T09:25:22;99756.97;;;9.94
79228;BMP280;75303;53.496;10.214;2024-03-02T09:27:48;99760.09;;;10.13
79228;BMP280;75303;53.496;10.214;2024-03-02T09:30:13;99763.97;;;10.32
79228;BMP280;75303;53.496;10.214;2024-03-02T09:32:39;99754.03;;;10.29
79228;BMP280;75303;53.496;10.214;2024-03-02T09:35:04;99761.00;;;10.25
79228;BMP280;75303;53.496;10.214;2024-03-02T09:37:30;99762.78;;;10.59
79228;BMP280;75303;53.496;10.214;2024-03-02T09:39:55;99762.22;;;10.90
79228;BMP280;75303;53.496;10.214;2024-03-02T09:42:21;99759.78;;;10.85
79228;BMP280;75303;53.496;10.214;2024-03-02T09:44:47;99754.72;;;11.01
79228;BMP280;75303;53.496;10.214;2024-03-02T09:47:13;99759.72;;;11.31
79228;BMP280;75303;53.496;10.214;2024-03-02T09:49:38;99756.53;;;11.17
79228;BMP280;75303;53.496;10.214;2024-03-02T09:52:04;99751.81;;;11.23
79228;BMP280;75303;53.496;10.214;2024-03-02T09:54:30;99763.44;;;11.30
79228;BMP280;75303;53.496;10.214;2024-03-02T09:56:55;99757.97;;;11.35
79228;BMP280;75303;53.496;10.214;2024-03-02T09:59:20;99763.09;;;11.69
79228;BMP280;75303;53.496;10.214;2024-03-02T10:01:59;99752.53;;;11.69
79228;BMP280;75303;53.496;10.214;2024-03-02T10:04:28;99758.81;;;11.76
79228;BMP280;75303;53.496;10.214;2024-03-02T10:07:17;99767.59;;;11.89
79228;BMP280;75303;53.496;10.214;2024-03-02T10:09:43;99761.13;;;11.98
79228;BMP280;75303;53.496;10.214;2024-03-02T10:12:09;99758.84;;;11.97
79228;BMP280;75303;53.496;10.214;2024-03-02T10:14:35;99754.00;;;11.99
79228;BMP280;75303;53.496;10.214;2024-03-02T10:17:06;99755.13;;;12.30
79228;BMP280;75303;53.496;10.214;2024-03-02T10:19:32;99763.53;;;12.44
79228;BMP280;75303;53.496;10.214;2024-03-02T10:21:58;99755.94;;;12.54
79228;BMP280;75303;53.496;10.214;2024-03-02T10:24:24;99760.75;;;12.40
79228;BMP280;75303;53.496;10.214;2024-03-02T10:26:50;99768.06;;;12.43
79228;BMP280;75303;53.496;10.214;2024-03-02T10:29:16;99764.34;;;12.56
79228;BMP280;75303;53.496;10.214;2024-03-02T10:31:43;99770.78;;;12.67
79228;BMP280;75303;53.496;10.214;2024-03-02T10:34:10;99775.09;;;12.84
79228;BMP280;75303;53.496;10.214;2024-03-02T10:36:36;99771.53;;;12.80
79228;BMP280;75303;53.496;10.214;2024-03-02T10:39:03;99765.00;;;13.10
79228;BMP280;75303;53.496;10.214;2024-03-02T10:41:32;99753.53;;;12.94
79228;BMP280;75303;53.496;10.214;2024-03-02T10:43:57;99758.94;;;13.21
79228;BMP280;75303;53.496;10.214;2024-03-02T10:46:28;99758.94;;;13.09
79228;BMP280;75303;53.496;10.214;2024-03-02T10:48:57;99755.63;;;12.88
79228;BMP280;75303;53.496;10.214;2024-03-02T10:51:29;99759.81;;;13.13
79228;BMP280;75303;53.496;10.214;2024-03-02T10:53:57;99763.22;;;12.90
79228;BMP280;75303;53.496;10.214;2024-03-02T10:56:29;99761.97;;;12.75
79228;BMP280;75303;53.496;10.214;2024-03-02T10:59:02;99754.38;;;12.86
79228;BMP280;75303;53.496;10.214;2024-03-02T11:01:29;99754.75;;;12.96
79228;BMP280;75303;53.496;10.214;2024-03-02T11:03:56;99759.50;;;13.14
79228;BMP280;75303;53.496;10.214;2024-03-02T11:06:22;99759.81;;;13.01
79228;BMP280;75303;53.496;10.214;2024-03-02T11:08:49;99763.56;;;12.88
79228;BMP280;75303;53.496;10.214;2024-03-02T11:11:17;99760.91;;;13.00
79228;BMP280;75303;53.496;10.214;2024-03-02T11:13:49;99764.22;;;13.09
79228;BMP280;75303;53.496;10.214;2024-03-02T11:16:36;99764.69;;;13.11
79228;BMP280;75303;53.496;10.214;2024-03-02T11:19:10;99773.50;;;13.03
79228;BMP280;75303;53.496;10.214;2024-03-02T11:21:36;99763.47;;;13.09
79228;BMP280;75303;53.496;10.214;2024-03-02T11:26:46;99775.84;;;13.16
79228;BMP280;75303;53.496;10.214;2024-03-02T11:32:04;99777.69;;;13.28
79228;BMP280;75303;53.496;10.214;2024-03-02T11:34:31;99764.19;;;13.69
79228;BMP280;75303;53.496;10.214;2024-03-02T11:36:57;99767.22;;;13.43
79228;BMP280;75303;53.496;10.214;2024-03-02T11:39:24;99762.69;;;13.08
79228;BMP280;75303;53.496;10.214;2024-03-02T11:41:49;99772.81;;;13.06
79228;BMP280;75303;53.496;10.214;2024-03-02T11:44:15;99766.66;;;13.02
79228;BMP280;75303;53.496;10.214;2024-03-02T11:46:41;99766.66;;;13.02
79228;BMP280;75303;53.496;10.214;2024-03-02T11:49:06;99767.06;;;12.92
79228;BMP280;75303;53.496;10.214;2024-03-02T11:51:33;99758.81;;;12.94
79228;BMP280;75303;53.496;10.214;2024-03-02T11:53:59;99766.47;;;12.75
79228;BMP280;75303;53.496;10.214;2024-03-02T11:56:26;99770.09;;;12.58
79228;BMP280;75303;53.496;10.214;2024-03-02T11:58:53;99766.53;;;12.54
79228;BMP280;75303;53.496;10.214;2024-03-02T12:01:18;99762.16;;;12.58
79228;BMP280;75303;53.496;10.214;2024-03-02T12:03:45;99767.59;;;12.41
79228;BMP280;75303;53.496;10.214;2024-03-02T12:06:11;99768.13;;;12.35
79228;BMP280;75303;53.496;10.214;2024-03-02T12:08:38;99761.56;;;12.41
79228;BMP280;75303;53.496;10.214;2024-03-02T12:11:03;99761.66;;;12.44
79228;BMP280;75303;53.496;10.214;2024-03-02T12:13:28;99766.28;;;12.47
79228;BMP280;75303;53.496;10.214;2024-03-02T12:15:54;99766.28;;;12.47
79228;BMP280;75303;53.496;10.214;2024-03-02T12:18:21;99761.25;;;12.54
79228;BMP280;75303;53.496;10.214;2024-03-02T12:20:48;99763.59;;;12.68
79228;BMP280;75303;53.496;10.214;2024-03-02T12:23:14;99760.19;;;12.67
79228;BMP280;75303;53.496;10.214;2024-03-02T12:25:39;99760.19;;;12.67
79228;BMP280;75303;53.496;10.214;2024-03-02T12:28:05;99759.44;;;12.79
79228;BMP280;75303;53.496;10.214;2024-03-02T12:30:34;99761.28;;;12.78
79228;BMP280;75303;53.496;10.214;2024-03-02T12:33:00;99762.97;;;12.83
79228;BMP280;75303;53.496;10.214;2024-03-02T12:35:25;99763.56;;;12.88
79228;BMP280;75303;53.496;10.214;2024-03-02T12:37:52;99754.28;;;12.94
79228;BMP280;75303;53.496;10.214;2024-03-02T12:40:18;99749.66;;;12.91
79228;BMP280;75303;53.496;10.214;2024-03-02T12:42:47;99751.88;;;12.89
79228;BMP280;75303;53.496;10.214;2024-03-02T12:45:13;99757.16;;;12.89
79228;BMP280;75303;53.496;10.214;2024-03-02T12:47:40;99754.56;;;12.81
79228;BMP280;75303;53.496;10.214;2024-03-02T12:50:06;99754.69;;;12.84
79228;BMP280;75303;53.496;10.214;2024-03-02T12:52:32;99746.97;;;12.79
79228;BMP280;75303;53.496;10.214;2024-03-02T12:54:58;99749.44;;;12.96
79228;BMP280;75303;53.496;10.214;2024-03-02T12:57:28;99740.41;;;13.09
79228;BMP280;75303;53.496;10.214;2024-03-02T12:59:58;99747.13;;;13.30
79228;BMP280;75303;53.496;10.214;2024-03-02T13:02:27;99754.06;;;13.47
79228;BMP280;75303;53.496;10.214;2024-03-02T13:04:53;99745.59;;;13.81
79228;BMP280;75303;53.496;10.214;2024-03-02T13:07:23;99756.06;;;14.28
79228;BMP280;75303;53.496;10.214;2024-03-02T13:09:49;99752.38;;;14.17
79228;BMP280;75303;53.496;10.214;2024-03-02T13:12:19;99755.03;;;14.17
79228;BMP280;75303;53.496;10.214;2024-03-02T13:14:44;99746.03;;;13.94
79228;BMP280;75303;53.496;10.214;2024-03-02T13:17:09;99733.94;;;13.70
79228;BMP280;75303;53.496;10.214;2024-03-02T13:19:35;99736.84;;;13.53
79228;BMP280;75303;53.496;10.214;2024-03-02T13:22:00;99732.78;;;13.43
79228;BMP280;75303;53.496;10.214;2024-03-02T13:24:28;99738.63;;;13.49
79228;BMP280;75303;53.496;10.214;2024-03-02T13:26:54;99744.91;;;13.44
79228;BMP280;75303;53.496;10.214;2024-03-02T13:29:22;99741.41;;;13.16
79228;BMP280;75303;53.496;10.214;2024-03-02T13:31:47;99745.06;;;13.12
79228;BMP280;75303;53.496;10.214;2024-03-02T13:34:13;99745.03;;;13.00
79228;BMP280;75303;53.496;10.214;2024-03-02T13:36:38;99734.66;;;12.95
79228;BMP280;75303;53.496;10.214;2024-03-02T13:39:04;99720.41;;;12.76
79228;BMP280;75303;53.496;10.214;2024-03-02T13:41:31;99729.78;;;12.73
79228;BMP280;75303;53.496;10.214;2024-03-02T13:43:56;99734.59;;;12.59
79228;BMP280;75303;53.496;10.214;2024-03-02T13:46:22;99731.16;;;12.59
79228;BMP280;75303;53.496;10.214;2024-03-02T13:48:47;99728.22;;;12.60
79228;BMP280;75303;53.496;10.214;2024-03-02T13:51:12;99719.50;;;12.60
79228;BMP280;75303;53.496;10.214;2024-03-02T13:53:37;99720.41;;;12.64
79228;BMP280;75303;53.496;10.214;2024-03-02T13:56:03;99713.22;;;12.64
79228;BMP280;75303;53.496;10.214;2024-03-02T13:58:28;99716.75;;;12.68
79228;BMP280;75303;53.496;10.214;2024-03-02T14:00:53;99726.78;;;12.63
79228;BMP280;75303;53.496;10.214;2024-03-02T14:03:19;99723.16;;;12.79